Latest Weather Observations for Sellicks Hill

IDS60801

Issued at 2:02 pm CDT Monday 2 March 2015 (issued every 30 minutes, with the page automatically refreshed every 10 minutes)

About weather observations | Map of weather stations | Latest weather observations for SA | Other Formats
Station Details ID: 023886 Name: MOUNT TERRIBLE RADAR Lat: -35.33 Lon: 138.50 Height: 385.7 m
Data from the previous 72 hours. | See also: Recent months for locations in South Australia
Date/Time
CDT
Temp
°C
App
Temp
°C
Dew
Point
Rel
Hum
%
Delta-T
°C
Wind Press
QNH
hPa
Press
MSL
hPa
Rain
since 9 am
mm
Dir
 
Spd
km/h
Gust
km/h
Spd
kts
Gust
kts
02/02:00pm - - - - - NW 6 13 3 7 - - -
02/01:30pm - - - - - NNW 7 13 4 7 - - -
02/01:00pm - - - - - NNW 7 13 4 7 - - -
02/12:30pm - - - - - N 6 13 3 7 - - -
02/12:00pm - - - - - N 6 13 3 7 - - -
02/11:30am - - - - - NNE 6 9 3 5 - - -
02/11:00am - - - - - NE 4 7 2 4 - - -
02/10:30am - - - - - ENE 6 9 3 5 - - -
02/10:00am - - - - - NE 4 9 2 5 - - -
02/09:30am - - - - - NE 6 9 3 5 - - -
02/09:00am - - - - - NE 7 11 4 6 - - -
02/08:30am - - - - - NE 11 20 6 11 - - -
02/08:00am - - - - - E 15 20 8 11 - - -
02/07:30am - - - - - E 17 24 9 13 - - -
02/07:00am - - - - - E 20 32 11 17 - - -
02/06:30am - - - - - E 22 32 12 17 - - -
02/06:00am - - - - - ESE 20 28 11 15 - - -
02/05:30am - - - - - SE 24 32 13 17 - - -
02/05:00am - - - - - SE 26 32 14 17 - - -
02/04:30am - - - - - SE 26 32 14 17 - - -
02/04:00am - - - - - SE 28 35 15 19 - - -
02/03:30am - - - - - SE 28 35 15 19 - - -
02/03:00am - - - - - SE 30 33 16 18 - - -
02/02:30am - - - - - SE 32 37 17 20 - - -
02/02:00am - - - - - SE 32 37 17 20 - - -
02/01:30am - - - - - SE 32 37 17 20 - - -
02/01:00am - - - - - SE 33 39 18 21 - - -
02/12:30am - - - - - SE 35 43 19 23 - - -
02/12:00am - - - - - SE 39 44 21 24 - - -
 
Date/Time
CDT
Temp
°C
App
Temp
°C
Dew
Point
Rel
Hum
%
Delta-T
°C
Wind Press
QNH
hPa
Press
MSL
hPa
Rain
since 9 am
mm
Dir
 
Spd
km/h
Gust
km/h
Spd
kts
Gust
kts
01/11:30pm - - - - - SE 41 48 22 26 - - -
01/11:00pm - - - - - SSE 39 46 21 25 - - -
01/10:30pm - - - - - SSE 41 48 22 26 - - -
01/10:00pm - - - - - SSE 43 48 23 26 - - -
01/09:30pm - - - - - SSE 41 46 22 25 - - -
01/09:00pm - - - - - SSE 30 37 16 20 - - -
01/08:30pm - - - - - SSE 28 37 15 20 - - -
01/08:00pm - - - - - SSE 39 52 21 28 - - -
01/07:30pm - - - - - SSE 52 59 28 32 - - -
01/07:00pm - - - - - SSE 46 54 25 29 - - -
01/06:30pm - - - - - SSE 43 52 23 28 - - -
01/06:00pm - - - - - SSE 37 44 20 24 - - -
01/05:30pm - - - - - SSE 30 39 16 21 - - -
01/05:00pm - - - - - SSE 33 43 18 23 - - -
01/04:30pm - - - - - SSE 30 39 16 21 - - -
01/04:00pm - - - - - SSE 33 43 18 23 - - -
01/03:30pm - - - - - SSE 32 43 17 23 - - -
01/03:00pm - - - - - SSE 33 46 18 25 - - -
01/02:30pm - - - - - SSE 32 44 17 24 - - -
01/02:00pm - - - - - SSE 33 41 18 22 - - -
01/01:30pm - - - - - SSE 30 39 16 21 - - -
01/01:00pm - - - - - SSE 33 43 18 23 - - -
01/12:30pm - - - - - SSE 33 41 18 22 - - -
01/12:00pm - - - - - SSE 30 39 16 21 - - -
01/11:30am - - - - - SSE 35 43 19 23 - - -
01/11:00am - - - - - S 32 41 17 22 - - -
01/10:30am - - - - - SSE 33 43 18 23 - - -
01/10:00am - - - - - SSE 28 35 15 19 - - -
01/09:30am - - - - - SSE 20 28 11 15 - - -
01/09:00am - - - - - S 24 35 13 19 - - -
01/08:30am - - - - - SSE 24 30 13 16 - - -
01/08:00am - - - - - S 19 24 10 13 - - -
01/07:30am - - - - - S 19 22 10 12 - - -
01/07:00am - - - - - S 20 24 11 13 - - -
01/06:30am - - - - - S 15 24 8 13 - - -
01/06:00am - - - - - S 17 30 9 16 - - -
01/05:30am - - - - - S 11 17 6 9 - - -
01/05:00am - - - - - SSW 9 17 5 9 - - -
01/04:30am - - - - - SW 7 11 4 6 - - -
01/04:00am - - - - - SSW 7 11 4 6 - - -
01/03:30am - - - - - SW 9 20 5 11 - - -
01/03:00am - - - - - SW 11 22 6 12 - - -
01/02:30am - - - - - SSW 11 20 6 11 - - -
01/02:00am - - - - - SSW 11 17 6 9 - - -
01/01:30am - - - - - SSW 15 28 8 15 - - -
01/01:00am - - - - - SSW 9 17 5 9 - - -
01/12:30am - - - - - SSW 9 17 5 9 - - -
01/12:00am - - - - - SSW 13 24 7 13 - - -
 
Date/Time
CDT
Temp
°C
App
Temp
°C
Dew
Point
Rel
Hum
%
Delta-T
°C
Wind Press
QNH
hPa
Press
MSL
hPa
Rain
since 9 am
mm
Dir
 
Spd
km/h
Gust
km/h
Spd
kts
Gust
kts
28/11:30pm - - - - - SSW 11 20 6 11 - - -
28/11:00pm - - - - - S 9 13 5 7 - - -
28/10:30pm - - - - - S 11 22 6 12 - - -
28/10:00pm - - - - - S 11 19 6 10 - - -
28/09:30pm - - - - - S 17 32 9 17 - - -
28/09:00pm - - - - - S 15 24 8 13 - - -
28/08:30pm - - - - - S 17 24 9 13 - - -
28/08:00pm - - - - - S 30 39 16 21 - - -
28/07:30pm - - - - - S 20 30 11 16 - - -
28/07:00pm - - - - - S 22 37 12 20 - - -
28/06:30pm - - - - - S 28 39 15 21 - - -
28/06:00pm - - - - - S 28 35 15 19 - - -
28/05:30pm - - - - - S 30 37 16 20 - - -
28/05:00pm - - - - - S 28 35 15 19 - - -
28/04:30pm - - - - - S 30 39 16 21 - - -
28/04:00pm - - - - - S 19 30 10 16 - - -
28/03:30pm - - - - - S 26 37 14 20 - - -
28/03:00pm - - - - - SSW 11 22 6 12 - - -
28/02:30pm - - - - - W 6 13 3 7 - - -
28/02:00pm - - - - - WSW 7 13 4 7 - - -
28/01:30pm - - - - - WNW 9 19 5 10 - - -
28/01:00pm - - - - - W 9 20 5 11 - - -
28/12:30pm - - - - - WNW 11 17 6 9 - - -
28/12:00pm - - - - - NW 9 17 5 9 - - -
28/11:30am - - - - - NNW 13 26 7 14 - - -
28/11:00am - - - - - NNW 13 24 7 13 - - -
28/10:30am - - - - - NNW 15 35 8 19 - - -
28/10:00am - - - - - NNW 13 22 7 12 - - -
28/09:30am - - - - - NNW 13 24 7 13 - - -
28/09:00am - - - - - NNW 11 20 6 11 - - -
28/08:30am - - - - - NNW 11 19 6 10 - - -
28/08:00am - - - - - NNW 13 24 7 13 - - -
28/07:30am - - - - - N 9 20 5 11 - - -
28/07:00am - - - - - N 7 19 4 10 - - -
28/06:30am - - - - - N 7 13 4 7 - - -
28/06:00am - - - - - N 9 20 5 11 - - -
28/05:30am - - - - - NE 11 19 6 10 - - -
28/05:00am - - - - - ENE 13 22 7 12 - - -
28/04:30am - - - - - ENE 13 20 7 11 - - -
28/04:00am - - - - - ENE 17 24 9 13 - - -
28/03:30am - - - - - E 19 30 10 16 - - -
28/03:00am - - - - - E 22 33 12 18 - - -
28/02:30am - - - - - E 22 41 12 22 - - -
28/02:00am - - - - - E 24 35 13 19 - - -
28/01:30am - - - - - ESE 22 33 12 18 - - -
28/01:00am - - - - - E 20 28 11 15 - - -
28/12:30am - - - - - ESE 22 35 12 19 - - -
28/12:00am - - - - - ESE 22 28 12 15 - - -
 
Date/Time
CDT
Temp
°C
App
Temp
°C
Dew
Point
Rel
Hum
%
Delta-T
°C
Wind Press
QNH
hPa
Press
MSL
hPa
Rain
since 9 am
mm
Dir
 
Spd
km/h
Gust
km/h
Spd
kts
Gust
kts
27/11:30pm - - - - - E 26 37 14 20 - - -
27/11:00pm - - - - - ESE 22 32 12 17 - - -
27/10:30pm - - - - - ESE 20 28 11 15 - - -
27/10:00pm - - - - - ESE 19 22 10 12 - - -
27/09:30pm - - - - - SSE 20 22 11 12 - - -
27/09:00pm - - - - - SE 20 24 11 13 - - -
27/08:30pm - - - - - SE 22 28 12 15 - - -
27/08:00pm - - - - - SSE 28 32 15 17 - - -
27/07:30pm - - - - - SSE 22 26 12 14 - - -
27/07:00pm - - - - - SSE 24 28 13 15 - - -
27/06:30pm - - - - - SE 20 22 11 12 - - -
27/06:00pm - - - - - SSE 17 19 9 10 - - -
27/05:30pm - - - - - W 4 9 2 5 - - -
27/05:00pm - - - - - WSW 2 6 1 3 - - -
27/04:30pm - - - - - WSW 4 7 2 4 - - -
27/04:00pm - - - - - WNW 6 13 3 7 - - -
27/03:30pm - - - - - NW 4 11 2 6 - - -
27/03:00pm - - - - - NNW 7 13 4 7 - - -
27/02:30pm - - - - - NNW 7 11 4 6 - - -

Other Formats:

Comma delimited format used in spreadsheet applications
http://www.bom.gov.au/fwo/IDS60801/IDS60801.95679.axf

JavaScript Object Notation format (JSON) in row-major order
http://www.bom.gov.au/fwo/IDS60801/IDS60801.95679.json